Time;durP1;ratioP1;P1;durP2;ratioP2;P2;SDS_P1;SDS_P2;PMS_P1;PMS_P2;Temp;Humidity;BMP_temperature;BMP_pressure;BME280_temperature;BME280_humidity;BME280_pressure;Samples;Min_cycle;Max_cycle;Signal;HPM_P1;HPM_P2
2024/04/24 00:02:06;;;;;;;39.73;21.55;;;;;;;19.72;46.37;100454.31;2318436;76;50700;-78
2024/04/24 00:05:08;;;;;;;44.33;22.07;;;;;;;19.71;46.35;100452.66;2280441;76;51574;-77
2024/04/24 00:08:10;;;;;;;43.33;21.70;;;;;;;19.71;46.35;100448.63;2286425;76;49546;-77
2024/04/24 00:11:14;;;;;;;43.55;22.70;;;;;;;19.71;46.34;100442.44;2318391;76;50208;-77
2024/04/24 00:14:16;;;;;;;47.75;21.30;;;;;;;19.71;46.33;100440.58;2318395;76;50419;-77
2024/04/24 00:17:18;;;;;;;39.92;21.12;;;;;;;19.70;46.32;100432.71;2286346;76;49642;-78
2024/04/24 00:20:20;;;;;;;42.30;21.05;;;;;;;19.70;46.30;100428.16;2306427;76;50333;-77
2024/04/24 00:23:23;;;;;;;37.78;20.57;;;;;;;19.69;46.31;100427.03;2318636;76;50617;-77
2024/04/24 00:26:25;;;;;;;34.80;18.80;;;;;;;19.70;46.29;100417.95;2318237;76;50791;-77
2024/04/24 00:29:27;;;;;;;36.77;19.23;;;;;;;19.68;46.28;100420.84;2306311;76;51473;-78
2024/04/24 00:32:29;;;;;;;35.52;19.48;;;;;;;19.68;46.28;100410.11;2286784;76;49542;-77
2024/04/24 00:35:31;;;;;;;35.40;18.65;;;;;;;19.67;46.27;100407.09;2305436;76;50328;-77
2024/04/24 00:38:34;;;;;;;38.23;19.07;;;;;;;19.67;46.25;100403.06;2280743;76;52165;-77
2024/04/24 00:41:36;;;;;;;35.60;17.67;;;;;;;19.67;46.24;100401.72;2280629;76;51875;-77
2024/04/24 00:44:38;;;;;;;36.33;18.77;;;;;;;19.66;46.25;100394.67;2318614;76;50721;-77
2024/04/24 00:47:40;;;;;;;33.50;18.48;;;;;;;19.65;46.29;100391.69;2306300;76;50782;-77
2024/04/24 00:50:43;;;;;;;37.63;18.10;;;;;;;19.65;46.28;100391.69;2318461;76;51528;-76
2024/04/24 00:53:45;;;;;;;33.60;18.35;;;;;;;19.67;46.24;100380.77;2318358;76;50745;-77
2024/04/24 00:56:47;;;;;;;35.85;17.45;;;;;;;19.67;46.23;100380.25;2305851;76;52337;-77
2024/04/24 00:59:49;;;;;;;32.85;17.37;;;;;;;19.65;46.24;100376.92;2318416;75;50259;-77
2024/04/24 01:02:51;;;;;;;36.77;17.60;;;;;;;19.65;46.22;100375.58;2318600;76;50697;-77
2024/04/24 01:05:54;;;;;;;35.40;17.42;;;;;;;19.66;46.17;100370.52;2306283;75;51532;-77
2024/04/24 01:08:56;;;;;;;29.85;16.23;;;;;;;19.65;46.13;100368.87;2306171;76;51527;-77
2024/04/24 01:11:58;;;;;;;30.45;15.93;;;;;;;19.65;46.11;100358.63;2318313;76;50293;-77
2024/04/24 01:15:00;;;;;;;32.45;15.83;;;;;;;19.64;46.16;100363.69;2318029;75;51621;-77
2024/04/24 01:18:04;;;;;;;31.70;16.37;;;;;;;19.65;46.11;100361.30;2318307;75;50296;-77
2024/04/24 01:21:06;;;;;;;26.15;14.58;;;;;;;19.63;46.12;100356.16;2305931;76;50081;-77
2024/04/24 01:24:13;;;;;;;29.98;15.20;;;;;;;19.63;46.12;100356.67;2318334;75;50361;-77
2024/04/24 01:27:16;;;;;;;30.97;15.10;;;;;;;19.62;46.12;100340.23;2318040;75;50294;-76
2024/04/24 01:30:18;;;;;;;31.35;14.93;;;;;;;19.63;46.09;100351.30;2306161;76;49765;-77
2024/04/24 01:33:20;;;;;;;29.10;14.15;;;;;;;19.62;46.07;100334.87;2306512;76;50635;-77
2024/04/24 01:36:22;;;;;;;32.73;15.00;;;;;;;19.62;46.06;100330.84;2318174;75;50717;-77
2024/04/24 01:39:24;;;;;;;30.95;13.72;;;;;;;19.61;46.03;100332.70;2306133;76;50530;-77
2024/04/24 01:42:27;;;;;;;24.02;12.50;;;;;;;19.62;45.99;100333.00;2306159;76;51491;-77
2024/04/24 01:45:29;;;;;;;30.60;14.53;;;;;;;19.62;45.97;100327.64;2305756;76;52903;-77
2024/04/24 01:48:31;;;;;;;25.05;13.03;;;;;;;19.60;45.96;100321.66;2318223;75;50345;-77
2024/04/24 01:51:33;;;;;;;25.02;13.25;;;;;;;19.59;45.97;100312.76;2306190;76;50284;-77
2024/04/24 01:54:35;;;;;;;25.88;13.15;;;;;;;19.61;45.96;100317.94;2306249;75;49557;-77
2024/04/24 01:57:38;;;;;;;24.85;12.95;;;;;;;19.59;46.00;100314.62;2306037;76;50337;-77
2024/04/24 02:00:40;;;;;;;26.25;12.98;;;;;;;19.58;46.00;100303.06;2306365;76;50643;-77
2024/04/24 02:03:42;;;;;;;23.75;12.40;;;;;;;19.58;46.01;100305.74;2306264;76;51445;-77
2024/04/24 02:06:44;;;;;;;23.95;12.50;;;;;;;19.58;46.02;100298.21;2317978;75;51504;-77
2024/04/24 02:09:46;;;;;;;23.25;12.33;;;;;;;19.58;46.01;100301.72;2305679;76;52543;-78
2024/04/24 02:12:49;;;;;;;21.07;12.03;;;;;;;19.59;46.01;100299.86;2318209;76;50361;-77
2024/04/24 02:15:52;;;;;;;21.75;11.45;;;;;;;19.59;46.00;100290.47;2317960;75;51500;-77
2024/04/24 02:18:54;;;;;;;21.65;11.70;;;;;;;19.57;46.03;100283.97;2280153;76;49508;-78
2024/04/24 02:21:56;;;;;;;22.90;11.65;;;;;;;19.57;46.03;100278.60;2306164;76;50185;-77
2024/04/24 02:28:18;;;;;;;21.23;11.68;;;;;;;19.57;46.05;100282.62;2318401;75;22365;-77
2024/04/24 02:31:20;;;;;;;21.62;11.90;;;;;;;19.57;46.02;100279.95;2306337;76;50259;-77
2024/04/24 02:34:22;;;;;;;18.20;10.35;;;;;;;19.57;45.98;100270.55;2306167;76;50061;-77
2024/04/24 02:37:25;;;;;;;18.55;10.32;;;;;;;19.58;45.96;100274.06;2306176;76;51428;-78
2024/04/24 02:40:27;;;;;;;20.30;10.45;;;;;;;19.57;45.97;100264.33;2318375;76;50773;-78
2024/04/24 02:43:29;;;;;;;21.37;11.15;;;;;;;19.57;45.92;100265.67;2306102;76;51131;-77
2024/04/24 02:46:32;;;;;;;21.93;10.53;;;;;;;19.57;45.93;100256.28;2305954;75;52094;-77
2024/04/24 02:49:34;;;;;;;16.15;9.95;;;;;;;19.56;45.93;100253.30;2318345;76;49987;-77
2024/04/24 02:52:36;;;;;;;17.82;9.90;;;;;;;19.56;45.89;100247.92;2318369;76;50182;-77
2024/04/24 02:55:38;;;;;;;18.55;10.70;;;;;;;19.57;45.89;100249.09;2318081;75;50714;-77
2024/04/24 02:58:40;;;;;;;20.27;9.75;;;;;;;19.57;45.88;100245.55;2306116;76;50807;-78
2024/04/24 03:01:43;;;;;;;19.62;10.35;;;;;;;19.56;45.88;100244.73;2306332;76;51212;-77
2024/04/24 03:04:45;;;;;;;17.12;9.78;;;;;;;19.57;45.87;100234.81;2306518;76;50021;-77
2024/04/24 03:07:47;;;;;;;16.27;9.25;;;;;;;19.56;45.86;100232.65;2306246;76;50060;-77
2024/04/24 03:10:49;;;;;;;21.73;10.38;;;;;;;19.56;45.85;100233.17;2318684;75;50712;-77
2024/04/24 03:13:51;;;;;;;17.45;9.33;;;;;;;19.54;45.88;100234.70;2306530;76;51538;-77
2024/04/24 03:16:54;;;;;;;16.48;9.40;;;;;;;19.53;45.85;100229.55;2318460;75;51457;-78
2024/04/24 03:19:56;;;;;;;16.97;9.15;;;;;;;19.54;45.86;100225.83;2318658;76;50235;-77
2024/04/24 03:22:58;;;;;;;15.55;9.30;;;;;;;19.53;45.83;100218.81;2306443;76;49592;-77
2024/04/24 03:26:00;;;;;;;16.62;8.35;;;;;;;19.54;45.83;100225.83;2318502;75;50717;-77
2024/04/24 03:29:02;;;;;;;15.75;9.15;;;;;;;19.52;45.81;100217.14;2318670;75;51539;-77
2024/04/24 03:32:05;;;;;;;15.50;8.60;;;;;;;19.52;45.78;100219.34;2318825;76;50623;-77
2024/04/24 03:35:08;;;;;;;15.18;9.18;;;;;;;19.51;45.77;100215.50;2280495;76;50416;-77
2024/04/24 03:38:10;;;;;;;17.75;8.25;;;;;;;19.52;45.73;100216.66;2306625;76;50400;-77
2024/04/24 03:41:12;;;;;;;13.75;8.10;;;;;;;19.51;45.69;100217.66;2280658;76;49601;-77
2024/04/24 03:44:15;;;;;;;14.43;8.95;;;;;;;19.52;45.68;100210.43;2281133;76;50678;-77
2024/04/24 03:47:17;;;;;;;15.45;8.25;;;;;;;19.53;45.66;100218.81;2318400;75;51537;-77
2024/04/24 03:50:19;;;;;;;14.80;8.08;;;;;;;19.52;45.65;100215.31;2306393;76;52475;-77
2024/04/24 03:53:21;;;;;;;18.80;8.65;;;;;;;19.50;45.69;100216.53;2318731;76;51468;-78
2024/04/24 03:56:23;;;;;;;14.50;7.65;;;;;;;19.49;45.66;100210.31;2318424;75;50357;-77
2024/04/24 03:59:26;;;;;;;15.48;7.30;;;;;;;19.50;45.63;100210.65;2318686;76;50321;-77
2024/04/24 04:02:28;;;;;;;13.00;7.45;;;;;;;19.49;45.62;100203.61;2280864;76;50603;-77
2024/04/24 04:05:30;;;;;;;13.55;6.92;;;;;;;19.49;45.62;100198.77;2306141;76;51618;-77
2024/04/24 04:08:32;;;;;;;20.05;8.08;;;;;;;19.50;45.56;100201.78;2318535;75;50389;-77
2024/04/24 04:11:34;;;;;;;18.02;7.28;;;;;;;19.49;45.54;100196.90;2306557;76;50600;-77
2024/04/24 04:14:37;;;;;;;12.82;7.25;;;;;;;19.48;45.55;100193.09;2280905;76;52555;-78
2024/04/24 04:17:39;;;;;;;14.07;7.10;;;;;;;19.49;45.54;100193.39;2318543;75;51470;-77
2024/04/24 04:20:42;;;;;;;14.10;7.17;;;;;;;19.49;45.56;100185.34;2306531;76;51527;-78
2024/04/24 04:23:44;;;;;;;14.20;7.80;;;;;;;19.48;45.56;100188.55;2318574;76;51498;-76
2024/04/24 04:26:47;;;;;;;13.08;7.00;;;;;;;19.48;45.59;100189.06;2306153;76;51444;-78
2024/04/24 04:29:49;;;;;;;11.80;6.65;;;;;;;19.48;45.58;100189.06;2306590;76;50117;-77
2024/04/24 04:32:51;;;;;;;12.75;6.00;;;;;;;19.48;45.58;100194.44;2318426;76;51499;-77
2024/04/24 04:35:53;;;;;;;14.95;7.50;;;;;;;19.48;45.54;100189.06;2318302;75;50314;-77
2024/04/24 04:38:56;;;;;;;15.68;6.58;;;;;;;19.48;45.52;100190.41;2306293;76;49545;-77
2024/04/24 04:41:58;;;;;;;14.05;6.70;;;;;;;19.48;45.53;100185.05;2318592;76;50239;-76
2024/04/24 04:45:00;;;;;;;14.35;6.80;;;;;;;19.47;45.54;100184.70;2318536;76;50014;-77
2024/04/24 04:48:02;;;;;;;11.40;6.53;;;;;;;19.47;45.56;100178.00;2317793;75;50769;-76
2024/04/24 04:51:05;;;;;;;12.80;6.15;;;;;;;19.46;45.60;100178.52;2267090;76;50784;-77
2024/04/24 04:54:07;;;;;;;14.50;6.28;;;;;;;19.47;45.53;100176.66;2243136;76;50868;-78
2024/04/24 04:57:09;;;;;;;11.93;6.33;;;;;;;19.47;45.53;100171.30;2316410;76;50611;-76
2024/04/24 05:00:13;;;;;;;15.08;6.33;;;;;;;19.49;45.53;100169.24;2316512;76;51579;-76
2024/04/24 05:03:15;;;;;;;12.65;6.17;;;;;;;19.50;46.34;100166.89;2243188;76;52991;-77
2024/04/24 05:06:17;;;;;;;11.83;6.53;;;;;;;19.47;46.11;100163.25;2316501;76;52416;-77
2024/04/24 05:09:19;;;;;;;18.35;5.95;;;;;;;19.49;46.26;100158.52;2316719;76;51536;-78
2024/04/24 05:12:22;;;;;;;14.33;6.05;;;;;;;19.50;46.11;100168.23;2318198;76;50345;-77
2024/04/24 05:15:24;;;;;;;14.95;5.80;;;;;;;19.50;46.07;100158.84;2316492;76;50374;-77
2024/04/24 05:18:26;;;;;;;14.63;5.83;;;;;;;19.49;46.21;100160.67;2292253;76;50223;-78
2024/04/24 05:21:28;;;;;;;16.70;5.83;;;;;;;19.50;46.22;100162.34;2316407;76;51638;-78
2024/04/24 05:24:30;;;;;;;19.07;7.00;;;;;;;19.53;46.97;100165.14;2316622;76;51421;-77
2024/04/24 05:30:52;;;;;;;19.87;6.78;;;;;;;19.54;47.17;100148.00;2316890;76;22380;-77
2024/04/24 05:33:55;;;;;;;18.75;6.37;;;;;;;19.61;47.17;100152.06;2316508;76;51489;-78
2024/04/24 05:36:57;;;;;;;28.10;6.58;;;;;;;19.63;47.38;100151.35;2316336;75;50701;-78
2024/04/24 05:39:59;;;;;;;19.20;5.83;;;;;;;19.65;48.76;100146.09;2316459;76;51506;-78
2024/04/24 05:43:01;;;;;;;23.75;6.30;;;;;;;19.68;48.67;100142.18;2242875;76;50944;-77
2024/04/24 05:46:04;;;;;;;29.65;7.22;;;;;;;19.68;48.41;100132.30;2316161;76;51408;-76
2024/04/24 05:49:06;;;;;;;22.05;5.78;;;;;;;19.69;48.22;100137.96;2292171;76;50766;-77
2024/04/24 05:52:08;;;;;;;23.70;6.05;;;;;;;19.67;48.14;100127.12;2291642;76;50084;-77
2024/04/24 05:55:10;;;;;;;20.70;5.90;;;;;;;19.65;48.05;100124.63;2316138;76;51599;-77
2024/04/24 05:58:12;;;;;;;20.40;5.95;;;;;;;19.64;47.74;100124.81;2316201;76;50343;-77
2024/04/24 06:01:15;;;;;;;17.73;6.08;;;;;;;19.63;47.67;100118.63;2292232;76;51426;-77
2024/04/24 06:04:17;;;;;;;15.83;5.78;;;;;;;19.62;47.57;100115.61;2316565;76;50420;-78
2024/04/24 06:07:19;;;;;;;23.70;5.83;;;;;;;19.61;47.29;100115.83;2291952;76;51078;-77
2024/04/24 06:10:21;;;;;;;16.65;5.20;;;;;;;19.59;47.47;100111.48;2316499;76;50787;-78
2024/04/24 06:13:23;;;;;;;22.17;6.15;;;;;;;19.60;47.43;100115.02;2316561;76;50625;-77
2024/04/24 06:16:26;;;;;;;14.75;5.28;;;;;;;19.59;47.40;100101.26;2291780;76;51030;-77
2024/04/24 06:19:28;;;;;;;19.12;5.40;;;;;;;19.58;47.35;100109.83;2318129;76;51654;-76
2024/04/24 06:22:30;;;;;;;13.88;5.37;;;;;;;19.58;47.28;100106.33;2316187;76;51513;-76
2024/04/24 06:25:36;;;;;;;11.10;4.72;;;;;;;19.58;47.26;100099.62;2317829;76;50242;-77
2024/04/24 06:28:36;;;;;;;15.48;5.30;;;;;;;19.57;47.18;100096.60;2315560;76;22348;-76
2024/04/24 06:31:38;;;;;;;16.15;5.33;;;;;;;19.57;47.13;100099.29;2291311;76;51021;-76
2024/04/24 06:34:41;;;;;;;22.58;5.42;;;;;;;19.56;46.97;100092.28;2316085;76;50461;-77
2024/04/24 06:37:44;;;;;;;14.38;5.17;;;;;;;19.56;46.88;100094.96;2315832;75;51347;-77
2024/04/24 06:40:46;;;;;;;22.55;5.42;;;;;;;19.56;48.28;100091.76;2291637;76;51035;-77
2024/04/24 06:43:48;;;;;;;21.65;6.30;;;;;;;19.57;48.86;100087.21;2317456;76;50520;-76
2024/04/24 06:46:50;;;;;;;18.77;5.83;;;;;;;19.56;48.84;100085.05;2315656;76;51546;-76
2024/04/24 06:49:52;;;;;;;25.25;6.20;;;;;;;19.57;48.44;100084.03;2316042;76;51502;-76
2024/04/24 06:52:55;;;;;;;15.23;5.33;;;;;;;19.57;48.15;100084.53;2315833;76;52334;-76
2024/04/24 06:56:04;;;;;;;21.10;5.42;;;;;;;19.56;47.99;100081.55;2291185;76;49560;-76
2024/04/24 06:59:06;;;;;;;14.13;5.22;;;;;;;19.56;47.73;100077.00;2266606;76;50757;-76
2024/04/24 07:02:08;;;;;;;17.70;5.17;;;;;;;19.54;47.50;100078.23;2315996;76;51293;-77
2024/04/24 07:05:11;;;;;;;18.42;5.50;;;;;;;19.54;47.25;100078.23;2291478;76;52379;-77
2024/04/24 07:08:13;;;;;;;14.68;4.70;;;;;;;19.53;47.01;100076.07;2315949;76;51393;-77
2024/04/24 07:11:15;;;;;;;16.62;4.85;;;;;;;19.52;46.91;100073.09;2316027;76;50345;-77
2024/04/24 07:14:17;;;;;;;11.10;4.53;;;;;;;19.54;46.75;100071.00;2316167;76;50358;-77
2024/04/24 07:17:19;;;;;;;11.35;4.33;;;;;;;19.54;46.66;100066.16;2317360;75;50240;-77
2024/04/24 07:20:22;;;;;;;15.40;5.20;;;;;;;19.53;46.57;100071.22;2291521;76;50645;-76
2024/04/24 07:23:24;;;;;;;10.82;5.03;;;;;;;19.53;46.42;100063.17;2315967;76;51540;-77
2024/04/24 07:26:26;;;;;;;15.83;5.10;;;;;;;19.53;46.37;100057.81;2315824;76;51500;-76
2024/04/24 07:29:28;;;;;;;13.40;5.00;;;;;;;19.53;46.29;100064.52;2291525;76;50970;-77
2024/04/24 07:32:30;;;;;;;15.80;5.33;;;;;;;19.53;46.26;100065.34;2316006;76;50284;-76
2024/04/24 07:35:33;;;;;;;15.50;4.87;;;;;;;19.52;46.19;100061.02;2317306;76;52244;-77
2024/04/24 07:38:35;;;;;;;13.85;4.80;;;;;;;19.53;46.15;100063.17;2316058;76;50379;-77
2024/04/24 07:41:37;;;;;;;13.70;4.42;;;;;;;19.51;46.10;100054.49;2316000;76;50701;-77
2024/04/24 07:44:43;;;;;;;13.60;4.12;;;;;;;19.52;46.09;100060.16;2316126;76;51518;-77
2024/04/24 07:47:43;;;;;;;14.03;4.87;;;;;;;19.53;46.09;100055.95;2316121;76;22290;-77
2024/04/24 07:50:48;;;;;;;8.65;4.42;;;;;;;19.53;46.06;100052.44;2266760;76;50130;-77
2024/04/24 07:53:50;;;;;;;10.67;4.20;;;;;;;19.52;46.01;100050.28;2291804;76;49587;-77
2024/04/24 07:56:52;;;;;;;12.03;4.58;;;;;;;19.51;45.97;100046.44;2316062;76;50639;-77
2024/04/24 07:59:54;;;;;;;15.43;4.08;;;;;;;19.50;45.97;100044.28;2316281;76;50492;-77
2024/04/24 08:02:57;;;;;;;13.60;4.30;;;;;;;19.53;45.94;100052.44;2316056;76;50714;-77
2024/04/24 08:05:59;;;;;;;8.13;3.92;;;;;;;19.51;45.83;100045.92;2315827;75;51548;-77
2024/04/24 08:09:01;;;;;;;8.85;3.77;;;;;;;19.51;45.77;100039.22;2266791;76;51088;-77
2024/04/24 08:12:05;;;;;;;11.65;4.22;;;;;;;19.51;45.70;100029.00;2316276;76;51483;-77
2024/04/24 08:15:08;;;;;;;12.75;4.30;;;;;;;19.51;45.67;100033.03;2267434;76;51545;-77
2024/04/24 08:18:10;;;;;;;10.15;4.47;;;;;;;19.52;45.59;100022.11;2291745;76;50167;-77
2024/04/24 08:21:12;;;;;;;6.78;3.65;;;;;;;19.52;45.55;100030.16;2316220;76;51567;-77
2024/04/24 08:24:15;;;;;;;11.53;3.92;;;;;;;19.53;45.55;100029.63;2316343;76;51591;-77
2024/04/24 08:27:17;;;;;;;13.88;3.77;;;;;;;19.53;45.60;100023.74;2315989;76;50388;-77
2024/04/24 08:30:19;;;;;;;8.58;4.05;;;;;;;19.54;45.63;100022.70;2316228;76;50480;-77
2024/04/24 08:33:21;;;;;;;11.90;3.40;;;;;;;19.56;45.62;100028.70;2291379;76;50090;-77
2024/04/24 08:36:23;;;;;;;7.15;3.70;;;;;;;19.53;45.59;100032.31;2316016;76;51534;-77
2024/04/24 08:39:26;;;;;;;9.38;3.95;;;;;;;19.54;45.54;100021.36;2316364;76;50649;-78
2024/04/24 08:42:29;;;;;;;7.70;3.40;;;;;;;19.54;45.62;100019.20;2267004;76;51637;-77
2024/04/24 08:45:31;;;;;;;6.65;3.10;;;;;;;19.56;45.63;100019.83;2316111;76;50446;-77
2024/04/24 08:48:35;;;;;;;7.33;3.45;;;;;;;19.54;45.63;100025.38;2316198;76;50760;-77
2024/04/24 08:51:41;;;;;;;9.33;3.60;;;;;;;19.56;45.63;100015.28;2290974;76;50261;-77
2024/04/24 08:54:43;;;;;;;9.48;4.03;;;;;;;19.58;45.65;100021.80;2316384;76;51565;-76
2024/04/24 08:57:47;;;;;;;8.50;3.40;;;;;;;19.57;45.64;100018.78;2291846;76;51164;-76
2024/04/24 09:00:49;;;;;;;7.78;3.45;;;;;;;19.57;45.60;100010.73;2316664;76;22400;-77
2024/04/24 09:03:53;;;;;;;11.93;3.45;;;;;;;19.57;45.53;100012.08;2316178;76;50251;-77
2024/04/24 09:06:55;;;;;;;6.90;3.42;;;;;;;19.56;45.46;100010.44;2291002;76;49564;-77
2024/04/24 09:09:58;;;;;;;5.80;3.20;;;;;;;19.57;45.43;100013.41;2316364;76;50254;-76
2024/04/24 09:13:01;;;;;;;7.30;3.55;;;;;;;19.55;45.35;100010.95;2316273;76;51551;-77
2024/04/24 09:16:03;;;;;;;10.68;3.75;;;;;;;19.54;45.32;100011.14;2315995;76;50311;-77
2024/04/24 09:19:05;;;;;;;7.47;3.37;;;;;;;19.55;45.30;100010.95;2316382;76;51533;-77
2024/04/24 09:22:07;;;;;;;6.50;3.50;;;;;;;19.54;45.29;100005.78;2292075;76;51017;-76
2024/04/24 09:25:10;;;;;;;5.05;2.85;;;;;;;19.56;45.30;100009.09;2317860;76;52236;-78
2024/04/24 09:28:12;;;;;;;7.50;3.37;;;;;;;19.54;45.27;100003.09;2316430;76;51437;-78
2024/04/24 09:31:14;;;;;;;6.33;3.37;;;;;;;19.53;45.25;100012.19;2291646;76;52632;-77
2024/04/24 09:34:16;;;;;;;5.37;3.30;;;;;;;19.53;45.25;100000.94;2266695;76;51406;-77
2024/04/24 09:37:19;;;;;;;8.58;3.17;;;;;;;19.54;45.20;100002.58;2315965;76;50825;-76
2024/04/24 09:40:21;;;;;;;8.28;3.30;;;;;;;19.53;45.21;100000.11;2316296;76;50339;-77
2024/04/24 09:43:23;;;;;;;7.12;3.10;;;;;;;19.55;45.24;100003.42;2316332;76;50358;-76
2024/04/24 09:46:25;;;;;;;6.10;3.05;;;;;;;19.54;45.16;99997.73;2291478;76;50128;-77
2024/04/24 09:49:27;;;;;;;5.62;2.58;;;;;;;19.54;45.08;99997.20;2291723;76;51037;-76
2024/04/24 09:52:30;;;;;;;4.85;3.20;;;;;;;19.53;45.06;99991.54;2316542;76;51429;-77
2024/04/24 09:55:33;;;;;;;6.33;2.83;;;;;;;19.53;45.07;99994.75;2288536;76;51002;-77
2024/04/24 09:58:36;;;;;;;5.17;2.95;;;;;;;19.53;45.01;99990.72;2316354;76;51538;-76
2024/04/24 10:01:38;;;;;;;5.50;2.90;;;;;;;19.53;45.00;99986.70;2266730;76;50149;-76
2024/04/24 10:04:41;;;;;;;7.03;3.27;;;;;;;19.53;45.01;99986.70;2316236;76;51531;-76
2024/04/24 10:07:49;;;;;;;4.33;2.70;;;;;;;19.54;45.02;99991.02;2316018;75;51562;-76
2024/04/24 10:10:54;;;;;;;4.53;2.60;;;;;;;19.53;45.00;99987.52;2290921;76;52678;-77
2024/04/24 10:13:56;;;;;;;5.53;2.97;;;;;;;19.53;44.99;99988.04;2316417;76;50445;-76
2024/04/24 10:16:58;;;;;;;6.58;2.98;;;;;;;19.53;44.99;99979.99;2315922;76;50742;-76
2024/04/24 10:20:01;;;;;;;4.75;2.58;;;;;;;19.54;44.93;99987.00;2291625;76;49422;-77
2024/04/24 10:23:03;;;;;;;3.45;2.62;;;;;;;19.52;44.90;99984.53;2316337;76;50341;-77
2024/04/24 10:26:05;;;;;;;5.30;2.85;;;;;;;19.53;44.93;99982.67;2317988;76;50411;-77
2024/04/24 10:29:07;;;;;;;4.60;2.85;;;;;;;19.51;44.91;99981.52;2316142;76;50438;-77
2024/04/24 10:32:09;;;;;;;6.53;2.90;;;;;;;19.50;44.91;99981.22;2316103;76;51518;-77
2024/04/24 10:35:12;;;;;;;5.10;2.75;;;;;;;19.51;44.87;99975.34;2291229;76;52822;-77
2024/04/24 10:38:17;;;;;;;5.30;2.40;;;;;;;19.51;44.81;99977.50;2316142;76;51490;-77
2024/04/24 10:41:19;;;;;;;6.62;2.45;;;;;;;19.51;44.79;99980.70;2292604;76;50291;-77
2024/04/24 10:44:22;;;;;;;5.95;2.95;;;;;;;19.50;44.77;99975.86;2291739;76;49229;-77
2024/04/24 10:47:24;;;;;;;6.58;2.52;;;;;;;19.51;44.74;99979.36;2315870;76;50709;-78
2024/04/24 10:50:27;;;;;;;5.95;2.50;;;;;;;19.50;44.78;99972.36;2292100;76;51557;-78
2024/04/24 10:53:29;;;;;;;4.05;2.62;;;;;;;19.49;44.74;99968.00;2316199;76;50389;-77
2024/04/24 10:56:31;;;;;;;4.92;2.58;;;;;;;19.49;44.67;99968.83;2291904;75;50387;-77
2024/04/24 10:59:35;;;;;;;5.62;2.50;;;;;;;19.50;44.57;99969.15;2291670;76;49573;-77
2024/04/24 11:02:38;;;;;;;4.80;2.22;;;;;;;19.51;44.61;99965.42;2291953;76;51560;-76
2024/04/24 11:05:42;;;;;;;5.37;2.60;;;;;;;19.53;44.59;99967.91;2315876;76;51574;-77
2024/04/24 11:08:44;;;;;;;5.80;2.65;;;;;;;19.51;44.56;99959.23;2288443;76;49682;-76
2024/04/24 11:11:46;;;;;;;4.10;2.17;;;;;;;19.51;44.55;99961.92;2316204;76;50368;-76
2024/04/24 11:14:49;;;;;;;5.37;2.55;;;;;;;19.53;44.57;99965.23;2316128;76;50353;-78
2024/04/24 11:17:51;;;;;;;3.45;2.40;;;;;;;19.51;44.61;99954.69;2315902;76;51585;-77
2024/04/24 11:20:54;;;;;;;6.17;2.62;;;;;;;19.54;44.62;99960.16;2292156;76;50391;-77
2024/04/24 11:23:57;;;;;;;3.62;2.35;;;;;;;19.51;44.58;99953.35;2291588;76;50125;-78
2024/04/24 11:27:00;;;;;;;3.72;2.30;;;;;;;19.53;44.54;99954.50;2317344;75;51508;-78
2024/04/24 11:30:17;;;;;;;4.97;2.30;;;;;;;19.55;44.52;99961.83;2316237;76;50406;-78
2024/04/24 11:33:19;;;;;;;4.15;2.40;;;;;;;19.55;44.54;99954.60;2266856;76;50163;-78
2024/04/24 11:36:22;;;;;;;4.62;2.58;;;;;;;19.53;44.54;99955.31;2316017;76;51428;-77
2024/04/24 11:39:24;;;;;;;2.77;2.12;;;;;;;19.53;44.53;99949.95;2316330;76;51495;-77
2024/04/24 11:42:26;;;;;;;4.80;2.33;;;;;;;19.52;44.55;99952.34;2316235;76;51392;-77
2024/04/24 11:45:28;;;;;;;2.90;2.17;;;;;;;19.53;44.54;99950.47;2316014;76;50706;-77
2024/04/24 11:48:30;;;;;;;3.72;2.33;;;;;;;19.53;44.47;99945.11;2288410;76;51277;-77
2024/04/24 11:51:38;;;;;;;5.28;2.10;;;;;;;19.51;44.50;99942.62;2316356;76;50487;-77
2024/04/24 11:54:41;;;;;;;3.75;2.65;;;;;;;19.52;44.42;99945.63;2316381;76;52543;-78
2024/04/24 11:57:43;;;;;;;4.22;2.27;;;;;;;19.50;44.41;99936.95;2291456;76;51068;-77
2024/04/24 12:00:45;;;;;;;4.00;2.17;;;;;;;19.51;44.38;99933.75;2316244;76;50507;-77
2024/04/24 12:03:48;;;;;;;2.98;2.12;;;;;;;19.50;44.37;99938.30;2291965;76;50416;-76
2024/04/24 12:06:50;;;;;;;3.30;2.05;;;;;;;19.51;44.34;99927.04;2288439;76;50042;-76
2024/04/24 12:09:52;;;;;;;2.27;1.92;;;;;;;19.51;44.35;99929.72;2316273;76;50717;-77
2024/04/24 12:12:54;;;;;;;3.52;2.30;;;;;;;19.51;44.33;99925.70;2316219;76;51610;-77
2024/04/24 12:16:02;;;;;;;3.47;2.20;;;;;;;19.50;44.33;99930.77;2288179;76;51815;-78
2024/04/24 12:19:04;;;;;;;2.45;2.10;;;;;;;19.50;44.33;99930.77;2315784;76;50283;-77
2024/04/24 12:22:06;;;;;;;4.15;2.50;;;;;;;19.50;44.31;99932.11;2316446;76;50358;-77
2024/04/24 12:25:09;;;;;;;3.20;2.20;;;;;;;19.51;44.32;99931.06;2316176;76;50736;-78
2024/04/24 12:28:11;;;;;;;3.37;2.30;;;;;;;19.48;44.29;99922.91;2316283;76;50731;-77
2024/04/24 12:31:13;;;;;;;2.27;2.02;;;;;;;19.48;44.32;99917.55;2275049;76;51118;-77
2024/04/24 12:34:18;;;;;;;3.87;2.22;;;;;;;19.49;44.31;99927.75;2316257;76;51612;-78
2024/04/24 12:37:19;;;;;;;3.62;2.27;;;;;;;19.49;44.25;99918.36;2292358;76;22444;-78
2024/04/24 12:40:21;;;;;;;4.15;2.22;;;;;;;19.48;44.22;99922.09;2266705;76;49553;-79
2024/04/24 12:43:23;;;;;;;3.08;2.02;;;;;;;19.48;44.15;99918.89;2313912;76;50623;-78
2024/04/24 12:46:25;;;;;;;3.12;2.00;;;;;;;19.48;44.17;99923.44;2282147;76;51394;-78
2024/04/24 12:49:28;;;;;;;2.25;1.77;;;;;;;19.48;44.12;99918.06;2308415;75;51482;-78
2024/04/24 12:52:30;;;;;;;2.85;1.98;;;;;;;19.50;44.08;99927.56;2299452;75;52004;-78
2024/04/24 12:55:32;;;;;;;3.27;2.10;;;;;;;19.53;43.95;99926.33;2276770;75;50910;-78
2024/04/24 12:58:34;;;;;;;3.25;2.10;;;;;;;19.53;44.43;99930.34;2302423;74;50336;-78
2024/04/24 13:01:36;;;;;;;3.33;1.90;;;;;;;19.57;44.40;99920.83;2291523;76;50345;-78
2024/04/24 13:04:39;;;;;;;3.27;2.08;;;;;;;19.59;44.47;99914.75;2285912;76;49637;-78
2024/04/24 13:07:41;;;;;;;2.92;2.15;;;;;;;19.59;44.51;99918.77;2299004;76;50306;-78
2024/04/24 13:10:43;;;;;;;4.70;2.20;;;;;;;19.59;44.30;99914.75;2297371;76;50368;-78
2024/04/24 13:13:45;;;;;;;4.42;2.08;;;;;;;19.59;44.33;99920.11;2287229;76;50710;-79
2024/04/24 13:16:48;;;;;;;5.25;1.87;;;;;;;19.58;44.36;99917.95;2297473;76;51440;-79
2024/04/24 13:19:51;;;;;;;3.85;2.00;;;;;;;19.61;44.38;99915.38;2257250;76;50078;-79
2024/04/24 13:22:53;;;;;;;3.90;2.10;;;;;;;19.62;44.44;99915.67;2303448;75;51431;-80
2024/04/24 13:25:55;;;;;;;7.15;2.67;;;;;;;19.62;45.10;99899.56;2265945;76;50124;-79
2024/04/24 13:28:57;;;;;;;5.92;2.05;;;;;;;19.65;44.75;99907.72;2287351;76;49593;-79
2024/04/24 13:31:59;;;;;;;5.50;1.98;;;;;;;19.67;44.72;99904.34;2287283;76;50339;-77
2024/04/24 13:35:02;;;;;;;6.25;2.22;;;;;;;19.67;44.79;99897.64;2271017;78;50772;-79
2024/04/24 13:38:05;;;;;;;5.95;2.10;;;;;;;19.67;45.40;99886.91;2223656;78;50154;-77
2024/04/24 13:41:07;;;;;;;3.60;1.90;;;;;;;19.68;44.61;99890.73;2271277;78;51501;-76
2024/04/24 13:44:14;;;;;;;3.95;2.05;;;;;;;19.65;44.54;99889.78;2272963;77;49569;-76
2024/04/24 13:47:14;;;;;;;2.62;1.82;;;;;;;19.65;44.60;99884.91;2271528;77;22414;-76
2024/04/24 13:50:16;;;;;;;4.03;1.82;;;;;;;19.64;44.56;99882.75;2271517;78;51591;-78
2024/04/24 13:53:18;;;;;;;4.15;1.85;;;;;;;19.63;44.49;99877.61;2247719;78;50982;-77
2024/04/24 13:56:21;;;;;;;5.20;1.85;;;;;;;19.63;44.49;99881.11;2271196;78;50580;-78
2024/04/24 13:59:23;;;;;;;4.30;2.17;;;;;;;19.62;44.42;99872.73;2271334;78;50364;-78
2024/04/24 14:02:26;;;;;;;4.15;1.98;;;;;;;19.64;44.43;99870.67;2271520;78;50338;-77
2024/04/24 14:05:28;;;;;;;5.03;2.00;;;;;;;19.64;44.35;99872.01;2271261;78;51529;-77
2024/04/24 14:08:30;;;;;;;4.28;2.10;;;;;;;19.62;44.27;99867.89;2247810;78;49608;-76
2024/04/24 14:11:33;;;;;;;2.80;1.85;;;;;;;19.63;44.14;99865.01;2272932;78;50451;-77